Time;durP1;ratioP1;P1;durP2;ratioP2;P2;SDS_P1;SDS_P2;PMS_P1;PMS_P2;Temp;Humidity;BMP_temperature;BMP_pressure;BME280_temperature;BME280_humidity;BME280_pressure;Samples;Min_cycle;Max_cycle;Signal;HPM_P1;HPM_P2
2024/03/01 00:01:28;;;;;;;16.50;9.30;;;;;;;6.59;67.71;99417.30;109235;1254;73378;-27
2024/03/01 00:03:56;;;;;;;27.60;11.60;;;;;;;7.26;65.80;99411.88;109357;1254;72665;-27
2024/03/01 00:06:24;;;;;;;19.00;10.70;;;;;;;7.40;64.88;99410.20;109395;1254;60049;-27
2024/03/01 00:08:51;;;;;;;24.40;10.60;;;;;;;7.12;64.99;99412.77;109313;1254;60209;-27
2024/03/01 00:11:19;;;;;;;26.50;10.50;;;;;;;6.86;65.38;99413.77;109115;1254;73813;-27
2024/03/01 00:13:47;;;;;;;24.40;11.10;;;;;;;6.62;65.57;99406.22;109264;1255;74304;-27
2024/03/01 00:16:14;;;;;;;20.00;11.20;;;;;;;6.38;66.36;99400.55;109108;1254;71511;-27
2024/03/01 00:18:43;;;;;;;21.70;13.30;;;;;;;6.11;67.69;99397.27;109225;1260;58826;-27
2024/03/01 00:21:17;;;;;;;25.00;12.10;;;;;;;5.92;68.48;99394.38;109113;1254;60183;-27
2024/03/01 00:23:45;;;;;;;16.50;8.00;;;;;;;5.76;68.52;99397.81;108984;1254;73865;-27
2024/03/01 00:26:13;;;;;;;19.20;9.60;;;;;;;6.31;67.83;99401.81;109132;1254;73474;-27
2024/03/01 00:28:41;;;;;;;22.40;11.30;;;;;;;6.98;66.26;99405.96;109220;1260;72656;-27
2024/03/01 00:31:08;;;;;;;26.50;11.40;;;;;;;7.09;65.21;99408.11;109206;1254;60049;-27
2024/03/01 00:33:36;;;;;;;21.60;10.40;;;;;;;6.89;65.16;99406.71;109123;1254;59506;-27
2024/03/01 00:36:04;;;;;;;19.10;10.70;;;;;;;6.61;65.69;99405.98;109128;1260;72570;-27
2024/03/01 00:38:32;;;;;;;19.20;10.20;;;;;;;6.36;66.15;99406.02;109140;1254;73664;-27
2024/03/01 00:41:00;;;;;;;20.10;11.20;;;;;;;6.15;66.43;99405.32;109124;1257;72669;-27
2024/03/01 00:43:27;;;;;;;20.50;11.00;;;;;;;5.95;66.95;99401.64;109147;1254;59289;-27
2024/03/01 00:45:55;;;;;;;22.30;11.90;;;;;;;5.78;67.15;99396.85;109226;1254;58812;-27
2024/03/01 00:48:23;;;;;;;12.70;7.70;;;;;;;5.59;67.51;99394.33;109235;1259;73841;-27
2024/03/01 00:50:51;;;;;;;18.70;10.50;;;;;;;6.11;67.84;99399.14;109155;1256;74383;-27
2024/03/01 00:53:19;;;;;;;17.30;9.70;;;;;;;6.77;66.36;99403.80;109234;1254;71420;-27
2024/03/01 00:55:46;;;;;;;23.30;11.60;;;;;;;6.89;65.62;99403.25;109251;1254;60150;-27
2024/03/01 00:58:14;;;;;;;17.80;9.20;;;;;;;6.77;65.35;99406.70;109250;1260;58738;-27
2024/03/01 01:00:42;;;;;;;16.60;9.10;;;;;;;6.57;65.54;99405.15;109254;1254;73847;-27
2024/03/01 01:03:09;;;;;;;18.70;9.60;;;;;;;6.31;65.88;99403.56;109254;1254;74295;-26
2024/03/01 01:05:37;;;;;;;17.80;9.30;;;;;;;6.06;66.49;99401.20;109261;1254;71049;-26
2024/03/01 01:08:05;;;;;;;17.70;10.50;;;;;;;5.87;66.73;99401.20;109210;1255;58798;-27
2024/03/01 01:10:33;;;;;;;21.00;11.40;;;;;;;5.69;66.98;99400.80;109118;1256;58854;-27
2024/03/01 01:13:01;;;;;;;14.10;5.80;;;;;;;5.47;67.71;99393.05;109075;1257;73817;-26
2024/03/01 01:15:29;;;;;;;28.20;12.00;;;;;;;5.92;68.10;99387.80;109081;1259;72840;-27
2024/03/01 01:17:57;;;;;;;18.50;8.80;;;;;;;6.54;66.49;99387.73;109175;1257;72632;-27
2024/03/01 01:20:24;;;;;;;25.10;11.40;;;;;;;6.63;65.42;99381.16;109177;1256;60287;-27
2024/03/01 01:22:52;;;;;;;23.40;11.60;;;;;;;6.47;65.75;99380.92;109179;1257;60039;-27
2024/03/01 01:25:20;;;;;;;18.40;10.00;;;;;;;6.23;66.04;99372.77;109190;1260;73842;-27
2024/03/01 01:27:48;;;;;;;15.40;8.10;;;;;;;6.04;66.26;99372.84;109192;1257;74561;-27
2024/03/01 01:30:16;;;;;;;19.80;9.20;;;;;;;5.86;66.35;99366.10;109192;1257;72736;-27
2024/03/01 01:32:43;;;;;;;16.10;8.80;;;;;;;5.61;66.81;99368.52;109066;1257;58777;-27
2024/03/01 01:35:11;;;;;;;16.90;9.30;;;;;;;5.37;67.18;99362.27;109155;1257;60030;-27
2024/03/01 01:37:39;;;;;;;11.70;7.60;;;;;;;5.14;68.28;99362.95;109165;1256;73677;-27
2024/03/01 01:40:08;;;;;;;19.40;9.50;;;;;;;5.74;68.06;99350.70;109130;1257;73329;-27
2024/03/01 01:42:35;;;;;;;21.50;10.50;;;;;;;6.42;66.51;99352.05;109005;1255;71651;-27
2024/03/01 01:45:04;;;;;;;13.80;7.60;;;;;;;6.52;65.91;99356.09;109139;1260;60067;-26
2024/03/01 01:47:32;;;;;;;28.30;9.70;;;;;;;6.29;66.12;99350.35;105209;1255;5150963;-27
2024/03/01 01:50:01;;;;;;;20.70;10.50;;;;;;;6.08;66.40;99353.14;109013;1255;73842;-27
2024/03/01 01:52:29;;;;;;;19.50;9.50;;;;;;;5.81;66.81;99345.00;109062;1256;74327;-27
2024/03/01 01:54:56;;;;;;;24.20;10.90;;;;;;;5.56;67.42;99339.88;109086;1256;72641;-27
2024/03/01 01:57:24;;;;;;;20.80;8.40;;;;;;;5.28;68.39;99337.27;108993;1255;58904;-26
2024/03/01 01:59:52;;;;;;;18.50;10.00;;;;;;;5.04;69.03;99335.81;109192;1257;60009;-27
2024/03/01 02:02:21;;;;;;;19.80;8.40;;;;;;;5.09;70.00;99337.75;109100;1257;72571;-27
2024/03/01 02:04:49;;;;;;;14.60;9.40;;;;;;;5.89;68.41;99340.43;109168;1257;73022;-26
2024/03/01 02:07:16;;;;;;;14.80;8.60;;;;;;;6.19;67.18;99338.37;109079;1257;72764;-27
2024/03/01 02:09:46;;;;;;;12.80;9.10;;;;;;;6.07;67.16;99329.61;109145;1257;60168;-27
2024/03/01 02:12:17;;;;;;;16.50;9.50;;;;;;;5.86;67.23;99327.14;109130;1257;58733;-27
2024/03/01 02:14:45;;;;;;;17.20;9.20;;;;;;;5.62;67.37;99319.35;109106;1258;72611;-27
2024/03/01 02:17:13;;;;;;;17.30;10.50;;;;;;;5.40;68.11;99311.83;109089;1257;74335;-27
2024/03/01 02:19:41;;;;;;;19.60;10.60;;;;;;;5.19;68.75;99312.12;109118;1256;71775;-27
2024/03/01 02:22:09;;;;;;;16.40;9.90;;;;;;;4.97;69.54;99302.65;109070;1257;58870;-27
2024/03/01 02:24:37;;;;;;;15.00;7.80;;;;;;;4.76;70.57;99305.95;109054;1257;60041;-26
2024/03/01 02:27:05;;;;;;;20.80;9.60;;;;;;;5.38;70.35;99298.31;109054;1257;73902;-27
2024/03/01 02:29:33;;;;;;;18.80;10.30;;;;;;;6.02;68.25;99301.59;109109;1256;74349;-26
2024/03/01 02:32:01;;;;;;;20.50;9.10;;;;;;;6.12;67.26;99304.64;109092;1257;72671;-27
2024/03/01 02:34:29;;;;;;;19.90;11.30;;;;;;;5.93;67.46;99302.66;109143;1255;60056;-27
2024/03/01 02:36:57;;;;;;;18.80;10.10;;;;;;;5.73;67.90;99301.01;109108;1257;60027;-27
2024/03/01 02:39:25;;;;;;;23.20;10.80;;;;;;;5.51;68.55;99302.95;109112;1255;72613;-27
2024/03/01 02:41:54;;;;;;;24.90;10.80;;;;;;;5.31;68.69;99296.48;109178;1256;74290;-27
2024/03/01 02:44:22;;;;;;;21.70;12.00;;;;;;;5.11;69.27;99291.35;109092;1257;72619;-27
2024/03/01 02:46:50;;;;;;;17.20;8.60;;;;;;;4.93;70.23;99292.85;109077;1256;60883;-27
2024/03/01 02:49:18;;;;;;;20.00;8.50;;;;;;;5.53;69.63;99289.36;109119;1255;60024;-26
2024/03/01 02:51:47;;;;;;;24.40;9.60;;;;;;;6.17;67.59;99281.77;109047;1255;73876;-27
2024/03/01 02:54:14;;;;;;;20.90;10.50;;;;;;;6.31;66.53;99285.27;109251;1257;74337;-27
2024/03/01 02:56:42;;;;;;;22.60;10.60;;;;;;;6.14;66.72;99288.50;109137;1256;72620;-27
2024/03/01 02:59:10;;;;;;;20.70;11.20;;;;;;;5.88;67.29;99285.33;109144;1256;58873;-27
2024/03/01 03:01:39;;;;;;;19.60;11.00;;;;;;;5.59;68.04;99281.83;109156;1255;60101;-27
2024/03/01 03:04:06;;;;;;;17.70;12.30;;;;;;;5.38;68.37;99285.58;109128;1255;73841;-26
2024/03/01 03:06:35;;;;;;;23.30;12.90;;;;;;;5.14;69.34;99287.26;109145;1256;74318;-27
2024/03/01 03:09:09;;;;;;;18.00;8.80;;;;;;;4.94;70.59;99283.66;109114;1257;71716;-27
2024/03/01 03:11:39;;;;;;;21.30;9.60;;;;;;;5.73;69.41;99293.27;108993;1256;59866;-27
2024/03/01 03:14:10;;;;;;;32.30;13.60;;;;;;;6.32;67.33;99291.60;109041;1257;60102;-27
2024/03/01 03:16:40;;;;;;;24.40;11.60;;;;;;;6.39;66.43;99292.17;109019;1257;73912;-27
2024/03/01 03:19:11;;;;;;;22.90;11.10;;;;;;;6.16;66.68;99294.44;109146;1257;74527;-27
2024/03/01 03:21:40;;;;;;;23.50;11.30;;;;;;;5.85;67.64;99291.34;109011;1256;72845;-27
2024/03/01 03:24:11;;;;;;;29.70;13.00;;;;;;;5.57;68.29;99285.02;109096;1257;58851;-27
2024/03/01 03:26:40;;;;;;;23.30;13.10;;;;;;;5.38;68.94;99282.67;109042;1256;58815;-27
2024/03/01 03:29:10;;;;;;;22.60;13.00;;;;;;;5.21;69.35;99275.02;109105;1256;73942;-27
2024/03/01 03:31:42;;;;;;;21.90;9.30;;;;;;;4.97;70.23;99270.46;109071;1257;73100;-27
2024/03/01 03:34:12;;;;;;;20.20;11.50;;;;;;;5.50;69.76;99267.49;109117;1257;71768;-26
2024/03/01 03:36:42;;;;;;;23.30;12.00;;;;;;;6.13;68.05;99268.91;109065;1257;58797;-26
2024/03/01 03:39:12;;;;;;;30.60;13.50;;;;;;;6.14;67.02;99274.34;109116;1256;59055;-27
2024/03/01 03:41:43;;;;;;;40.90;17.60;;;;;;;5.77;67.94;99270.79;109003;1256;75071;-27
2024/03/01 03:44:13;;;;;;;34.10;15.20;;;;;;;5.56;68.47;99271.17;109127;1256;74337;-27
2024/03/01 03:46:43;;;;;;;58.20;27.20;;;;;;;5.29;69.16;99275.74;109062;1256;72845;-27
2024/03/01 03:49:13;;;;;;;98.80;41.10;;;;;;;5.09;69.82;99274.63;109077;1256;58849;-27
2024/03/01 03:51:43;;;;;;;111.00;42.00;;;;;;;4.89;70.64;99273.79;109136;1257;60472;-27
2024/03/01 03:54:16;;;;;;;56.80;22.70;;;;;;;4.69;71.58;99280.69;109065;1256;73839;-26
2024/03/01 03:56:46;;;;;;;57.40;22.40;;;;;;;5.31;70.92;99278.20;109013;1256;73362;-27
2024/03/01 03:59:17;;;;;;;68.70;23.60;;;;;;;5.92;68.74;99287.70;109046;1256;71465;-27
2024/03/01 04:01:49;;;;;;;63.30;22.30;;;;;;;5.94;67.92;99289.46;109100;1256;60504;-27
2024/03/01 04:04:20;;;;;;;43.50;17.90;;;;;;;5.80;68.22;99282.67;109127;1257;60062;-27
2024/03/01 04:06:51;;;;;;;31.30;14.70;;;;;;;5.60;68.51;99280.74;109134;1256;73816;-27
2024/03/01 04:17:02;;;;;;;19.00;9.00;;;;;;;4.71;71.11;99270.80;102664;1292;600114;-27
2024/03/01 04:19:31;;;;;;;13.40;8.90;;;;;;;5.31;70.41;99271.67;104819;1267;61079;-28
2024/03/01 04:29:36;;;;;;;19.40;11.10;;;;;;;5.46;68.74;99287.00;102669;1292;600167;-25
2024/03/01 04:32:07;;;;;;;24.40;12.40;;;;;;;5.18;69.42;99285.67;104806;1266;61193;-26
2024/03/01 04:34:35;;;;;;;32.20;14.50;;;;;;;4.95;70.11;99283.60;104788;1266;61143;-25
2024/03/01 04:37:03;;;;;;;33.10;15.60;;;;;;;4.76;70.62;99286.02;104798;1266;70699;-26
2024/03/01 04:39:32;;;;;;;22.40;12.40;;;;;;;4.54;71.66;99291.27;104913;1266;74303;-26
2024/03/01 04:42:00;;;;;;;37.30;15.30;;;;;;;5.08;71.19;99291.71;104892;1266;71434;-25
2024/03/01 04:44:28;;;;;;;48.20;19.40;;;;;;;5.76;68.98;99299.95;102786;1267;61174;-26
2024/03/01 04:46:56;;;;;;;39.00;17.50;;;;;;;5.86;68.26;99299.59;105099;1263;61113;-25
2024/03/01 04:49:24;;;;;;;39.20;16.30;;;;;;;5.71;68.11;99297.86;105170;1267;61243;-26
2024/03/01 04:51:52;;;;;;;32.00;15.20;;;;;;;5.47;68.28;99304.21;105198;1263;74455;-25
2024/03/01 04:54:20;;;;;;;39.60;16.60;;;;;;;5.22;68.88;99305.24;105097;1263;72752;-25
2024/03/01 05:04:12;;;;;;;22.80;10.10;;;;;;;4.78;71.14;99299.83;102691;1294;599423;-25
2024/03/01 05:06:40;;;;;;;38.20;15.20;;;;;;;5.67;69.24;99299.64;104869;1267;61184;-27
2024/03/01 05:16:46;;;;;;;39.70;15.80;;;;;;;5.53;68.14;99306.45;103342;1288;600116;-25
2024/03/01 05:19:14;;;;;;;21.10;10.10;;;;;;;5.22;69.00;99302.46;104867;1270;61007;-25
2024/03/01 05:21:41;;;;;;;38.30;16.10;;;;;;;5.06;69.40;99310.40;104809;1270;61148;-27
2024/03/01 05:24:10;;;;;;;24.10;11.40;;;;;;;4.91;70.15;99315.13;104839;1268;72204;-28
2024/03/01 05:26:39;;;;;;;27.20;12.30;;;;;;;5.66;68.84;99316.57;105081;1269;74234;-27
2024/03/01 05:29:06;;;;;;;25.10;11.60;;;;;;;6.16;67.19;99320.14;104835;1266;72720;-25
2024/03/01 05:31:45;;;;;;;24.40;12.00;;;;;;;6.14;66.82;99318.01;105008;1268;198328;-25
2024/03/01 05:34:14;;;;;;;25.10;11.90;;;;;;;5.95;67.17;99321.12;108703;1263;58818;-27
2024/03/01 05:36:42;;;;;;;28.60;11.30;;;;;;;5.74;67.50;99327.30;108612;1264;71898;-27
2024/03/01 05:39:18;;;;;;;24.50;11.30;;;;;;;5.56;68.08;99330.36;108756;1264;74432;-27
2024/03/01 05:41:46;;;;;;;22.30;12.20;;;;;;;5.30;69.24;99325.42;108885;1266;72628;-27
2024/03/01 05:44:16;;;;;;;14.30;7.50;;;;;;;5.12;70.09;99333.98;108771;1264;60847;-27
2024/03/01 05:46:44;;;;;;;14.00;8.70;;;;;;;5.76;69.55;99336.65;108658;1264;59997;-27
2024/03/01 05:49:12;;;;;;;17.40;9.60;;;;;;;6.40;67.77;99340.96;108795;1264;71790;-27
2024/03/01 05:51:40;;;;;;;17.60;7.70;;;;;;;6.52;66.75;99344.56;108743;1262;73297;-27
2024/03/01 05:54:07;;;;;;;18.60;8.30;;;;;;;6.39;66.90;99344.65;108726;1264;72649;-27
2024/03/01 05:56:35;;;;;;;22.60;9.20;;;;;;;6.22;67.47;99350.27;108789;1264;60048;-27
2024/03/01 05:59:03;;;;;;;15.80;8.50;;;;;;;6.09;67.74;99350.66;108751;1264;60040;-27
2024/03/01 06:01:32;;;;;;;17.30;9.60;;;;;;;5.91;68.25;99345.47;108821;1262;73113;-26
2024/03/01 06:03:59;;;;;;;15.40;8.70;;;;;;;5.72;69.00;99341.75;108824;1262;74218;-27
2024/03/01 06:06:27;;;;;;;11.50;7.20;;;;;;;5.84;69.55;99342.40;108908;1263;71050;-27
2024/03/01 06:08:55;;;;;;;15.30;8.50;;;;;;;6.41;68.13;99345.58;108715;1264;58867;-26
2024/03/01 06:11:23;;;;;;;19.00;9.20;;;;;;;6.55;67.59;99337.50;108794;1264;58740;-26
2024/03/01 06:13:50;;;;;;;27.70;11.20;;;;;;;6.48;67.48;99338.44;108862;1264;71752;-27
2024/03/01 06:16:18;;;;;;;26.60;11.60;;;;;;;6.37;67.80;99339.05;108710;1263;74289;-26
2024/03/01 06:18:46;;;;;;;26.20;12.70;;;;;;;6.21;68.46;99333.95;108823;1264;72675;-27
2024/03/01 06:21:20;;;;;;;69.90;26.20;;;;;;;6.09;68.91;99332.07;108821;1264;59388;-26
2024/03/01 06:23:48;;;;;;;48.70;18.10;;;;;;;5.96;69.48;99333.67;108754;1267;59657;-27
2024/03/01 06:26:16;;;;;;;79.00;29.20;;;;;;;6.50;68.70;99337.58;108757;1263;73059;-26
2024/03/01 06:28:44;;;;;;;40.00;15.30;;;;;;;7.06;66.65;99343.72;108707;1264;73033;-27
2024/03/01 06:31:11;;;;;;;31.20;12.80;;;;;;;7.11;65.88;99345.32;108747;1264;72481;-27
2024/03/01 06:33:41;;;;;;;25.40;11.90;;;;;;;6.98;66.01;99347.67;108748;1267;60064;-27
2024/03/01 06:36:08;;;;;;;37.00;15.90;;;;;;;6.82;66.62;99352.45;108696;1264;60048;-26
2024/03/01 06:38:38;;;;;;;52.50;20.20;;;;;;;6.63;67.04;99351.11;109123;1257;73009;-26
2024/03/01 06:41:07;;;;;;;36.30;14.00;;;;;;;6.58;67.62;99350.61;109123;1257;74451;-29
2024/03/01 06:43:34;;;;;;;34.20;14.90;;;;;;;6.43;67.91;99346.64;109106;1257;72336;-26
2024/03/01 06:46:07;;;;;;;13.90;7.10;;;;;;;6.50;68.70;99341.76;109225;1257;59589;-27
2024/03/01 06:48:35;;;;;;;32.80;13.40;;;;;;;7.20;66.36;99338.51;109142;1257;60002;-27
2024/03/01 06:51:03;;;;;;;30.80;11.10;;;;;;;7.51;65.32;99338.30;109133;1257;73004;-27
2024/03/01 06:53:31;;;;;;;28.60;11.10;;;;;;;7.75;64.08;99344.03;109140;1257;74311;-27
2024/03/01 06:56:02;;;;;;;28.10;11.80;;;;;;;7.67;64.24;99337.81;109221;1257;71634;-27
2024/03/01 06:58:30;;;;;;;39.60;14.60;;;;;;;7.41;64.58;99338.58;109036;1257;58921;-27
2024/03/01 07:00:57;;;;;;;21.20;9.30;;;;;;;7.26;65.32;99343.30;109131;1257;62066;-27
2024/03/01 07:03:25;;;;;;;22.30;9.70;;;;;;;7.09;65.90;99336.27;109103;1258;75278;-27
2024/03/01 07:05:54;;;;;;;22.40;9.10;;;;;;;6.94;66.65;99328.89;109126;1257;76704;-27
2024/03/01 07:08:22;;;;;;;16.20;6.80;;;;;;;6.92;66.70;99324.23;109089;1257;72752;-27
2024/03/01 07:10:52;;;;;;;7.70;4.70;;;;;;;7.73;65.00;99321.54;109029;1260;61975;-27
2024/03/01 07:13:21;;;;;;;15.00;7.80;;;;;;;8.23;63.28;99323.05;109116;1257;62109;-27
2024/03/01 07:15:48;;;;;;;15.90;6.80;;;;;;;8.32;62.99;99323.73;109061;1257;76529;-27
2024/03/01 07:18:16;;;;;;;13.30;6.60;;;;;;;8.06;63.01;99320.76;109103;1257;73189;-27
2024/03/01 07:20:44;;;;;;;20.80;9.10;;;;;;;7.86;63.18;99313.10;109041;1257;72858;-27
2024/03/01 07:23:15;;;;;;;6.10;4.00;;;;;;;7.73;63.56;99304.79;109087;1257;61152;-27
2024/03/01 07:25:43;;;;;;;19.60;7.60;;;;;;;7.59;63.67;99307.55;109109;1257;60035;-27
2024/03/01 07:28:11;;;;;;;17.40;8.40;;;;;;;7.66;63.66;99309.55;109091;1257;74102;-27
2024/03/01 07:30:40;;;;;;;17.10;8.80;;;;;;;7.62;63.55;99313.42;109097;1257;76396;-27
2024/03/01 07:33:07;;;;;;;15.20;8.60;;;;;;;7.67;63.75;99318.65;109087;1257;72649;-27
2024/03/01 07:35:37;;;;;;;19.60;7.30;;;;;;;7.77;63.33;99313.53;109053;1260;63173;-27
2024/03/01 07:38:05;;;;;;;14.20;7.30;;;;;;;8.47;61.38;99314.24;109050;1257;62425;-27
2024/03/01 07:40:33;;;;;;;23.90;9.10;;;;;;;8.97;60.26;99311.02;109089;1257;76326;-27
2024/03/01 07:43:01;;;;;;;14.10;6.70;;;;;;;9.10;59.55;99309.20;109113;1257;77103;-27
2024/03/01 07:45:29;;;;;;;12.60;6.70;;;;;;;8.87;59.37;99303.33;109031;1257;72664;-27
2024/03/01 07:47:56;;;;;;;16.90;8.50;;;;;;;8.55;59.91;99302.23;109022;1260;60078;-27
2024/03/01 07:50:24;;;;;;;17.40;5.90;;;;;;;8.36;60.28;99309.75;109145;1257;59998;-27
2024/03/01 07:52:52;;;;;;;26.10;7.70;;;;;;;8.16;60.06;99313.86;109068;1257;74892;-26
2024/03/01 07:55:20;;;;;;;19.60;9.70;;;;;;;8.12;60.19;99320.20;109110;1257;74326;-27
2024/03/01 07:57:48;;;;;;;14.00;6.50;;;;;;;8.11;60.20;99318.72;109043;1257;73731;-26
2024/03/01 08:00:16;;;;;;;21.50;8.40;;;;;;;8.08;60.60;99315.80;109013;1257;61616;-30
2024/03/01 08:02:44;;;;;;;10.80;6.00;;;;;;;8.09;60.53;99320.52;109022;1257;62261;-27
2024/03/01 08:05:12;;;;;;;12.10;4.90;;;;;;;8.11;60.01;99312.78;109058;1257;74206;-26
2024/03/01 08:07:40;;;;;;;16.60;6.30;;;;;;;7.98;59.80;99312.95;109112;1257;74705;-26
2024/03/01 08:10:11;;;;;;;15.40;6.70;;;;;;;7.91;60.11;99319.33;109029;1259;76276;-26
2024/03/01 08:12:41;;;;;;;13.10;6.00;;;;;;;8.11;59.94;99322.34;108876;1260;61286;-26
2024/03/01 08:15:11;;;;;;;10.40;5.80;;;;;;;8.15;59.90;99318.74;108914;1260;63640;-27
2024/03/01 08:17:39;;;;;;;16.60;5.90;;;;;;;8.15;59.36;99316.02;108849;1259;74160;-26
2024/03/01 08:20:10;;;;;;;9.50;5.70;;;;;;;8.05;59.07;99317.88;108962;1260;76690;-26
2024/03/01 08:22:38;;;;;;;15.30;7.70;;;;;;;8.00;59.27;99327.00;108874;1259;76256;-27
2024/03/01 08:25:06;;;;;;;10.50;6.30;;;;;;;8.03;59.69;99331.14;109008;1260;60321;-26
2024/03/01 08:27:34;;;;;;;15.20;6.00;;;;;;;8.16;59.01;99326.46;108894;1259;60255;-27
2024/03/01 08:30:02;;;;;;;13.00;5.50;;;;;;;8.19;59.04;99323.86;109014;1259;75110;-27
2024/03/01 08:32:39;;;;;;;16.30;6.40;;;;;;;8.22;58.72;99333.00;108901;1260;76782;-26
2024/03/01 08:35:16;;;;;;;17.00;7.00;;;;;;;8.32;58.47;99342.70;108940;1258;73759;-26
2024/03/01 08:37:44;;;;;;;14.30;7.20;;;;;;;8.19;58.70;99341.55;108887;1261;59851;-26
2024/03/01 08:40:37;;;;;;;14.60;6.80;;;;;;;8.40;58.47;99336.13;109072;1259;61162;-26
2024/03/01 08:43:05;;;;;;;13.80;6.50;;;;;;;8.53;57.52;99329.95;108990;1259;72959;-26
2024/03/01 08:45:45;;;;;;;9.00;4.90;;;;;;;8.51;57.06;99322.81;109079;1260;76715;-27
2024/03/01 08:48:18;;;;;;;13.00;5.60;;;;;;;8.36;57.01;99325.35;108894;1259;72797;-27
2024/03/01 08:50:51;;;;;;;;;;;;;;;8.55;56.97;99326.70;108881;1260;61292;-26
2024/03/01 08:53:51;;;;;;;10.00;6.10;;;;;;;8.48;56.71;99325.94;109032;1259;59925;-26
2024/03/01 08:56:20;;;;;;;15.80;7.20;;;;;;;8.52;56.22;99319.80;108939;1260;74062;-27
2024/03/01 08:58:48;;;;;;;12.40;5.60;;;;;;;8.59;55.69;99315.83;108987;1260;74623;-26
2024/03/01 09:01:39;;;;;;;10.30;5.50;;;;;;;8.86;55.16;99319.55;108967;1260;74051;-26
2024/03/01 09:04:14;;;;;;;11.60;6.80;;;;;;;9.06;54.80;99318.17;108873;1262;61326;-26
2024/03/01 09:06:42;;;;;;;12.00;5.60;;;;;;;9.16;54.62;99316.55;108902;1259;63435;-26
2024/03/01 09:09:20;;;;;;;9.40;5.40;;;;;;;9.11;54.36;99322.15;109052;1257;75352;-27
2024/03/01 09:11:50;;;;;;;11.60;6.60;;;;;;;9.08;54.61;99324.92;108846;1260;73850;-26
2024/03/01 09:14:26;;;;;;;11.90;5.30;;;;;;;9.23;54.23;99317.79;108917;1259;73482;-27
2024/03/01 09:16:54;;;;;;;9.50;5.10;;;;;;;9.15;54.18;99316.31;108842;1260;62710;-26
2024/03/01 09:19:23;;;;;;;13.10;6.40;;;;;;;9.16;54.74;99314.13;108982;1260;61375;-26
2024/03/01 09:21:51;;;;;;;10.50;5.90;;;;;;;9.56;54.22;99312.50;109009;1260;76478;-26
2024/03/01 09:24:20;;;;;;;9.40;4.70;;;;;;;9.58;53.72;99308.38;109057;1259;75185;-26
2024/03/01 09:26:48;;;;;;;13.20;8.00;;;;;;;9.64;53.67;99303.93;108881;1260;74921;-26
2024/03/01 09:29:29;;;;;;;11.10;6.10;;;;;;;9.79;52.98;99296.64;108997;1260;62331;-26
2024/03/01 09:31:58;;;;;;;16.10;6.10;;;;;;;9.99;52.48;99300.90;108851;1260;60831;-27
2024/03/01 09:34:30;;;;;;;7.50;4.60;;;;;;;10.03;52.46;99295.07;108856;1260;76118;-26
2024/03/01 09:36:57;;;;;;;15.40;6.00;;;;;;;10.05;52.10;99291.36;108817;1260;76674;-26
2024/03/01 09:39:25;;;;;;;17.20;7.40;;;;;;;10.26;51.93;99293.08;109057;1259;73434;-26
2024/03/01 09:42:18;;;;;;;7.90;4.80;;;;;;;10.67;51.67;99300.40;108975;1258;59837;-26
2024/03/01 09:45:05;;;;;;;19.40;7.10;;;;;;;10.73;50.66;99293.91;108944;1260;61089;-26
2024/03/01 09:47:48;;;;;;;10.40;6.00;;;;;;;10.76;51.00;99289.70;109006;1259;74817;-26
2024/03/01 09:50:51;;;;;;;16.60;6.00;;;;;;;10.88;50.87;99292.92;109040;1259;76799;-26
2024/03/01 09:53:24;;;;;;;13.20;4.70;;;;;;;11.12;50.01;99286.16;108911;1264;74906;-26
2024/03/01 09:56:18;;;;;;;10.50;5.90;;;;;;;11.16;49.08;99289.84;108975;1260;61418;-26
2024/03/01 09:59:01;;;;;;;10.10;6.00;;;;;;;10.75;49.15;99275.85;108885;1259;62288;-26
2024/03/01 10:01:38;;;;;;;12.00;5.50;;;;;;;10.90;49.02;99271.36;108950;1259;74847;-26
2024/03/01 10:04:25;;;;;;;11.40;5.70;;;;;;;10.96;48.99;99267.64;108978;1259;77920;-26
2024/03/01 10:07:45;;;;;;;11.90;6.50;;;;;;;10.98;48.50;99255.44;102732;1289;599994;-25
2024/03/01 10:10:24;;;;;;;;;;;;;;;11.23;48.53;99251.04;104773;1274;61510;-25
2024/03/01 10:13:03;;;;;;;8.50;3.50;;;;;;;11.31;48.64;99253.70;104620;1276;62283;-25
2024/03/01 10:15:40;;;;;;;17.70;6.40;;;;;;;11.49;48.36;99243.23;104647;1272;72414;-26
2024/03/01 10:18:14;;;;;;;9.90;5.40;;;;;;;11.58;47.91;99246.80;104744;1273;76796;-27
2024/03/01 10:21:04;;;;;;;15.10;6.40;;;;;;;11.55;47.68;99255.58;104676;1268;182723;-27
2024/03/01 10:23:43;;;;;;;10.40;5.30;;;;;;;11.41;47.08;99262.50;104820;1270;62900;-27
2024/03/01 10:26:28;;;;;;;8.50;5.60;;;;;;;11.21;47.57;99260.80;104918;1266;62690;-27
2024/03/01 10:29:17;;;;;;;8.80;5.10;;;;;;;11.19;47.17;99251.55;104826;1273;73556;-27
2024/03/01 10:32:23;;;;;;;10.30;4.80;;;;;;;11.33;46.74;99263.10;104785;1270;74784;-24
2024/03/01 10:35:21;;;;;;;10.10;5.30;;;;;;;11.34;46.45;99252.58;105506;1261;75747;-24
2024/03/01 10:38:12;;;;;;;7.70;5.70;;;;;;;11.19;46.84;99248.74;105668;1253;61709;-24
2024/03/01 10:40:51;;;;;;;9.20;5.10;;;;;;;11.18;46.25;99250.36;105643;1261;62472;-26
2024/03/01 10:43:47;;;;;;;13.70;5.90;;;;;;;11.48;45.89;99242.05;105697;1258;73199;-27
2024/03/01 10:46:22;;;;;;;10.40;5.20;;;;;;;11.51;45.64;99235.59;105455;1253;77105;-27
2024/03/01 10:49:12;;;;;;;7.70;4.40;;;;;;;11.51;44.88;99235.57;105428;1257;75161;-27
2024/03/01 10:52:10;;;;;;;6.60;4.00;;;;;;;11.37;44.60;99240.19;105707;1258;62815;-25
2024/03/01 10:54:39;;;;;;;9.30;5.00;;;;;;;11.19;45.23;99241.94;105727;1261;62497;-24
2024/03/01 10:57:07;;;;;;;11.00;6.00;;;;;;;11.22;45.95;99239.17;105724;1259;75906;-25
2024/03/01 10:59:40;;;;;;;8.40;4.70;;;;;;;11.46;46.18;99231.86;105696;1258;74680;-25
2024/03/01 11:02:18;;;;;;;7.20;5.00;;;;;;;11.47;45.60;99229.80;105639;1256;75502;-25
2024/03/01 11:05:22;;;;;;;6.50;3.50;;;;;;;11.40;44.91;99230.88;105578;1255;62286;-27
2024/03/01 11:07:55;;;;;;;9.10;5.30;;;;;;;11.24;45.74;99230.48;105388;1253;61771;-25
2024/03/01 11:10:32;;;;;;;10.30;4.60;;;;;;;11.21;45.25;99220.66;105633;1257;74753;-25
2024/03/01 11:13:19;;;;;;;8.60;5.10;;;;;;;11.09;45.26;99217.77;105571;1256;78694;-25
2024/03/01 11:15:47;;;;;;;15.90;7.90;;;;;;;11.02;44.87;99210.31;105485;1258;76645;-25
2024/03/01 11:18:20;;;;;;;14.60;5.50;;;;;;;11.04;45.42;99215.73;105738;1257;62827;-25
2024/03/01 11:21:09;;;;;;;7.40;4.60;;;;;;;11.08;45.30;99212.09;105564;1254;64010;-25
2024/03/01 11:23:43;;;;;;;6.70;4.20;;;;;;;11.22;45.64;99202.46;105274;1260;74521;-26
2024/03/01 11:26:14;;;;;;;;;;;;;;;11.34;45.12;99201.34;105648;1259;76968;-28
2024/03/01 11:28:45;;;;;;;8.20;5.20;;;;;;;11.67;45.34;99196.01;105715;1253;75420;-27
2024/03/01 11:31:21;;;;;;;13.60;5.00;;;;;;;11.77;44.30;99199.93;105677;1253;62366;-25
2024/03/01 11:33:49;;;;;;;11.50;5.70;;;;;;;12.10;43.90;99191.72;105601;1261;64057;-25
2024/03/01 11:36:47;;;;;;;17.00;5.90;;;;;;;12.35;43.55;99188.72;105330;1253;75545;-25
2024/03/01 11:39:34;;;;;;;4.90;3.90;;;;;;;12.25;42.97;99185.77;105507;1253;76889;-25
2024/03/01 11:42:15;;;;;;;7.20;4.40;;;;;;;11.76;42.89;99177.40;105631;1256;75400;-25
2024/03/01 11:45:05;;;;;;;9.70;4.90;;;;;;;11.59;43.90;99175.45;105678;1253;62926;-24
2024/03/01 11:47:46;;;;;;;9.40;4.80;;;;;;;11.53;44.71;99176.80;105644;1253;61688;-25
2024/03/01 11:50:35;;;;;;;7.70;5.00;;;;;;;11.57;45.33;99175.77;105533;1256;74409;-25
2024/03/01 11:53:26;;;;;;;8.50;5.00;;;;;;;11.59;44.62;99176.35;105431;1258;78407;-25
2024/03/01 11:56:19;;;;;;;12.20;6.10;;;;;;;11.72;44.65;99171.20;105477;1255;74863;-25
2024/03/01 11:59:10;;;;;;;10.30;6.80;;;;;;;11.79;44.58;99174.13;105716;1260;61199;-25
2024/03/01 12:01:42;;;;;;;8.90;5.30;;;;;;;11.76;44.75;99165.35;105686;1258;62800;-25
2024/03/01 12:04:24;;;;;;;8.90;4.80;;;;;;;11.69;45.05;99156.66;105632;1253;74147;-25
2024/03/01 12:07:01;;;;;;;11.00;5.60;;;;;;;11.43;45.00;99159.36;105595;1253;77189;-25
2024/03/01 12:09:44;;;;;;;8.30;5.00;;;;;;;11.40;45.29;99158.63;105413;1258;75473;-25
2024/03/01 12:12:46;;;;;;;7.80;4.00;;;;;;;11.32;45.63;99152.34;105538;1254;62903;-26
2024/03/01 12:15:27;;;;;;;9.20;4.80;;;;;;;11.20;46.07;99157.80;105326;1259;62899;-27